Time;durP1;ratioP1;P1;durP2;ratioP2;P2;SDS_P1;SDS_P2;PMS_P1;PMS_P2;Temp;Humidity;BMP_temperature;BMP_pressure;BME280_temperature;BME280_humidity;BME280_pressure;Samples;Min_cycle;Max_cycle;Signal;HPM_P1;HPM_P2
2023/09/28 00:03:05;;;;;;;21.13;18.13;;;13.20;99.90;;;12.87;100.00;98119.09;5080135;28;20451;-84
2023/09/28 00:05:32;;;;;;;21.43;18.50;;;13.10;99.90;;;12.83;100.00;98115.19;5086814;28;20460;-84
2023/09/28 00:08:00;;;;;;;22.43;18.70;;;13.00;99.90;;;12.77;100.00;98123.41;5089274;28;20809;-85
2023/09/28 00:10:27;;;;;;;22.00;19.10;;;13.00;99.90;;;12.69;100.00;98109.09;5089116;28;20526;-87
2023/09/28 00:12:56;;;;;;;21.20;17.67;;;12.90;99.90;;;12.71;100.00;98128.69;5088757;28;20542;-84
2023/09/28 00:15:25;;;;;;;21.23;18.93;;;12.80;99.90;;;12.63;100.00;98125.44;5090817;28;20518;-84
2023/09/28 00:17:52;;;;;;;20.73;18.53;;;12.80;99.90;;;12.63;100.00;98131.69;5089023;28;20578;-90
2023/09/28 00:20:22;;;;;;;23.07;19.30;;;12.70;99.90;;;12.63;100.00;98125.44;5096871;28;20467;-79
2023/09/28 00:22:51;;;;;;;21.07;18.60;;;12.80;99.90;;;12.71;100.00;98128.69;5106419;28;20495;-82
2023/09/28 00:25:21;;;;;;;26.03;17.67;;;12.80;99.90;;;12.59;100.00;98123.19;5110397;28;20664;-76
2023/09/28 00:27:50;;;;;;;22.80;17.77;;;12.90;99.90;;;12.64;100.00;98133.34;5090968;28;20524;-85
2023/09/28 00:30:22;;;;;;;21.97;19.47;;;12.90;99.90;;;12.71;100.00;98127.84;5089568;28;20457;-83
2023/09/28 00:32:49;;;;;;;21.53;18.70;;;12.90;99.90;;;12.58;100.00;98115.28;5087912;28;20569;-83
2023/09/28 00:35:17;;;;;;;20.40;18.07;;;12.80;99.90;;;12.66;100.00;98131.25;5087840;28;20593;-87
2023/09/28 00:37:44;;;;;;;21.13;18.30;;;12.80;99.90;;;12.63;100.00;98131.69;5098688;28;20485;-87
2023/09/28 00:40:18;;;;;;;20.43;16.67;;;12.70;99.90;;;12.57;100.00;98128.00;5096528;28;20527;-84
2023/09/28 00:42:45;;;;;;;22.23;18.40;;;12.70;99.90;;;12.52;100.00;98129.75;5090694;28;21553;-84
2023/09/28 00:45:12;;;;;;;20.10;18.00;;;12.70;99.90;;;12.51;100.00;98122.66;5081054;28;20773;-86
2023/09/28 00:47:40;;;;;;;21.87;18.40;;;12.70;99.90;;;12.53;100.00;98125.97;5085165;28;20458;-86
2023/09/28 00:50:11;;;;;;;20.97;17.83;;;12.70;99.90;;;12.48;100.00;98118.53;5086348;28;20800;-83
2023/09/28 00:52:39;;;;;;;19.27;17.27;;;12.70;99.90;;;12.41;100.00;98121.31;5081533;28;20449;-87
2023/09/28 00:55:08;;;;;;;23.13;18.70;;;12.60;99.90;;;12.33;100.00;98110.75;5087047;28;20644;-86
2023/09/28 00:57:35;;;;;;;21.13;18.17;;;12.70;99.90;;;11.89;100.00;98045.75;5083306;28;20445;-84
2023/09/28 01:00:18;;;;;;;22.00;19.70;;;12.60;99.90;;;12.33;100.00;98117.00;5089072;28;20478;-83
2023/09/28 01:02:47;;;;;;;20.80;17.90;;;12.50;99.90;;;12.35;100.00;98113.25;5088859;28;20445;-88
2023/09/28 01:05:15;;;;;;;25.73;19.93;;;12.50;99.90;;;12.26;100.00;98118.94;5083247;28;20460;-86
2023/09/28 01:07:41;;;;;;;23.53;20.80;;;12.50;99.90;;;12.22;100.00;98109.63;5085203;28;20440;-82
2023/09/28 01:10:12;;;;;;;22.63;19.60;;;12.50;99.90;;;12.29;100.00;98120.38;5087323;28;20524;-81
2023/09/28 01:12:39;;;;;;;21.70;19.37;;;12.50;99.90;;;12.30;100.00;98124.75;5088012;28;20445;-87
2023/09/28 01:15:11;;;;;;;21.30;18.47;;;12.50;99.90;;;12.16;100.00;98116.75;5089295;28;20551;-85
2023/09/28 01:17:39;;;;;;;23.23;19.77;;;12.40;99.90;;;12.26;100.00;98128.97;5083773;28;20481;-90
2023/09/28 01:20:23;;;;;;;23.33;20.20;;;12.50;99.90;;;12.10;100.00;98133.06;5088965;28;20488;-86
2023/09/28 01:22:51;;;;;;;22.63;18.93;;;12.40;99.90;;;12.09;100.00;98134.13;5089049;28;20451;-83
2023/09/28 01:25:19;;;;;;;23.53;18.47;;;12.40;99.90;;;12.05;100.00;98128.31;5087717;28;20453;-84
2023/09/28 01:27:46;;;;;;;20.43;18.20;;;12.40;99.90;;;11.98;100.00;98113.97;5095366;28;20486;-80
2023/09/28 01:30:14;;;;;;;22.63;19.13;;;12.40;99.90;;;12.01;100.00;98124.38;5091218;28;20450;-85
2023/09/28 01:32:42;;;;;;;22.57;19.27;;;12.30;99.90;;;11.87;100.00;98112.84;5088172;28;20470;-88
2023/09/28 01:35:11;;;;;;;21.70;18.53;;;12.30;99.90;;;11.82;100.00;98104.53;5097131;28;20464;-80
2023/09/28 01:37:55;;;;;;;20.80;17.97;;;12.20;99.90;;;11.97;100.00;98120.44;5097748;28;20916;-83
2023/09/28 01:40:22;;;;;;;20.37;18.13;;;12.20;99.90;;;11.93;100.00;98111.13;5105545;28;20480;-81
2023/09/28 01:42:48;;;;;;;19.80;17.70;;;12.20;99.90;;;11.86;100.00;98108.47;5109583;28;20440;-80
2023/09/28 01:45:16;;;;;;;20.93;18.67;;;12.10;99.90;;;11.84;100.00;98108.69;5111331;28;20485;-87
2023/09/28 01:47:42;;;;;;;20.30;18.17;;;12.10;99.90;;;11.75;100.00;98093.75;5094366;28;20451;-84
2023/09/28 01:50:10;;;;;;;21.53;18.37;;;12.10;99.90;;;11.83;100.00;98100.78;5090005;28;20848;-84
2023/09/28 01:52:37;;;;;;;21.50;18.00;;;12.10;99.90;;;11.75;100.00;98105.44;5080979;28;20500;-86
2023/09/28 01:55:06;;;;;;;21.50;19.23;;;12.00;99.90;;;11.71;100.00;98109.63;5092099;28;20818;-87
2023/09/28 01:57:32;;;;;;;21.50;18.57;;;12.00;99.90;;;11.69;100.00;98110.88;5089958;28;20458;-84
2023/09/28 02:00:00;;;;;;;27.33;20.37;;;12.00;99.90;;;11.68;100.00;98109.22;5089938;28;20989;-86
2023/09/28 02:02:26;;;;;;;23.10;20.57;;;11.90;99.90;;;11.70;100.00;98120.66;5090098;28;20455;-83
2023/09/28 02:04:53;;;;;;;22.80;20.17;;;11.90;99.90;;;11.74;100.00;98120.00;5090678;28;20486;-77
2023/09/28 02:07:19;;;;;;;28.67;21.33;;;12.00;99.90;;;11.82;100.00;98120.78;5090763;28;20453;-86
2023/09/28 02:09:47;;;;;;;26.47;20.83;;;12.00;99.90;;;11.59;100.00;98106.78;5082153;28;20814;-81
2023/09/28 02:12:14;;;;;;;24.63;19.77;;;12.00;99.90;;;11.11;100.00;98020.78;5089604;28;20911;-88
2023/09/28 02:14:42;;;;;;;27.60;20.47;;;12.00;99.90;;;11.54;100.00;98098.50;5088626;28;20507;-84
2023/09/28 02:17:08;;;;;;;26.40;20.90;;;12.00;99.90;;;11.64;100.00;98110.72;5086629;28;20452;-87
2023/09/28 02:19:35;;;;;;;25.70;18.73;;;12.00;99.90;;;11.58;100.00;98105.13;5085892;28;20442;-84
2023/09/28 02:22:02;;;;;;;24.30;20.63;;;12.00;99.90;;;11.62;100.00;98119.91;5089293;28;20996;-88
2023/09/28 02:24:30;;;;;;;23.63;21.23;;;11.90;99.90;;;11.52;100.00;98124.97;5085293;28;20441;-85
2023/09/28 02:26:56;;;;;;;22.80;20.50;;;11.80;99.90;;;11.51;100.00;98117.91;5091757;28;20462;-85
2023/09/28 02:29:26;;;;;;;27.47;22.30;;;11.80;99.90;;;11.26;100.00;98080.81;5089211;28;20466;-82
2023/09/28 02:31:52;;;;;;;27.70;20.50;;;11.90;99.90;;;11.58;100.00;98132.19;5090821;28;20459;-85
2023/09/28 02:34:19;;;;;;;27.73;20.17;;;11.90;99.90;;;11.52;100.00;98124.97;5086047;28;20472;-89
2023/09/28 02:36:46;;;;;;;24.40;20.23;;;11.90;99.90;;;11.49;100.00;98122.69;5088437;28;20454;-85
2023/09/28 02:39:13;;;;;;;21.90;19.50;;;11.80;99.90;;;11.52;100.00;98121.41;5088874;28;20469;-81
2023/09/28 02:41:39;;;;;;;25.27;20.77;;;11.90;99.90;;;11.44;100.00;98127.91;5092188;28;20576;-83
2023/09/28 02:44:07;;;;;;;23.93;19.73;;;11.80;99.90;;;11.42;100.00;98121.91;5087058;28;20851;-83
2023/09/28 02:46:34;;;;;;;27.10;21.03;;;11.70;99.90;;;11.47;100.00;98122.09;5089447;28;20447;-84
2023/09/28 02:49:03;;;;;;;26.00;21.03;;;11.80;99.90;;;11.44;100.00;98117.09;5087408;28;20473;-82
2023/09/28 02:51:29;;;;;;;25.47;20.43;;;11.80;99.90;;;11.43;100.00;98118.16;5089086;28;20455;-86
2023/09/28 02:53:58;;;;;;;24.00;20.87;;;11.70;99.90;;;11.29;100.00;98095.78;5089089;28;20464;-83
2023/09/28 02:56:24;;;;;;;24.63;19.77;;;11.70;99.90;;;11.27;100.00;98112.22;5086656;28;20494;-87
2023/09/28 02:58:52;;;;;;;28.33;21.53;;;11.70;99.90;;;11.37;100.00;98116.31;5087487;28;20966;-87
2023/09/28 03:01:23;;;;;;;26.60;20.30;;;11.70;99.90;;;11.37;100.00;98109.03;5099379;28;20572;-87
2023/09/28 03:03:53;;;;;;;23.57;20.73;;;11.80;99.90;;;11.41;100.00;98120.25;5083391;28;20458;-89
2023/09/28 03:06:20;;;;;;;27.40;20.73;;;11.80;99.90;;;11.37;100.00;98119.03;5084769;28;20463;-88
2023/09/28 03:08:48;;;;;;;22.70;19.33;;;11.80;99.90;;;11.35;100.00;98116.53;5084299;28;20443;-87
2023/09/28 03:11:14;;;;;;;25.80;20.07;;;11.70;99.90;;;11.37;100.00;98124.44;5088370;28;21180;-83
2023/09/28 03:13:41;;;;;;;26.30;20.20;;;11.70;99.90;;;11.33;100.00;98108.66;5087287;28;20832;-84
2023/09/28 03:16:09;;;;;;;25.60;19.27;;;11.70;99.90;;;11.25;100.00;98118.91;5086267;28;20472;-81
2023/09/28 03:18:36;;;;;;;25.83;20.27;;;11.70;99.90;;;11.36;100.00;98117.38;5087781;28;20446;-84
2023/09/28 03:21:08;;;;;;;23.47;19.50;;;11.70;99.90;;;11.24;100.00;98099.13;5081286;28;20488;-82
2023/09/28 03:23:35;;;;;;;23.67;19.70;;;11.70;99.90;;;11.26;100.00;98118.66;5082321;28;21047;-82
2023/09/28 03:26:01;;;;;;;27.83;21.53;;;11.70;99.90;;;11.23;100.00;98123.72;5089172;28;20547;-86
2023/09/28 03:28:31;;;;;;;22.03;19.17;;;11.60;99.90;;;11.25;100.00;98141.34;5088935;28;20451;-79
2023/09/28 03:30:58;;;;;;;22.50;18.70;;;11.60;99.90;;;11.22;100.00;98144.50;5090988;28;20437;-81
2023/09/28 03:33:25;;;;;;;24.17;19.90;;;11.50;99.90;;;11.23;100.00;98124.53;5084864;28;20471;-86
2023/09/28 03:35:51;;;;;;;23.73;19.73;;;11.60;99.90;;;11.30;100.00;98140.72;5092591;28;20476;-88
2023/09/28 03:38:20;;;;;;;21.80;19.40;;;11.60;99.90;;;11.31;100.00;98143.22;5088471;28;20460;-89
2023/09/28 03:40:47;;;;;;;23.90;20.00;;;11.60;99.90;;;11.29;100.00;98141.75;5081790;28;20468;-90
2023/09/28 03:43:14;;;;;;;27.77;21.00;;;11.60;99.90;;;11.17;100.00;98136.22;5087678;28;20448;-84
2023/09/28 03:45:42;;;;;;;24.57;19.60;;;11.60;99.90;;;11.21;100.00;98137.44;5088811;28;20472;-80
2023/09/28 03:48:09;;;;;;;23.10;19.43;;;11.60;99.90;;;11.16;100.00;98126.44;5089401;28;21387;-86
2023/09/28 03:50:37;;;;;;;23.90;19.67;;;11.60;99.90;;;11.21;100.00;98129.31;5087802;28;20464;-87
2023/09/28 03:53:05;;;;;;;25.90;20.57;;;11.60;99.90;;;11.16;100.00;98127.25;5085456;28;20472;-80
2023/09/28 03:55:34;;;;;;;21.57;18.50;;;11.50;99.90;;;11.25;100.00;98122.41;5083732;28;20548;-83
2023/09/28 03:58:01;;;;;;;22.37;19.97;;;11.60;99.90;;;11.21;100.00;98132.03;5086731;28;20452;-84
2023/09/28 04:00:30;;;;;;;24.70;20.27;;;11.60;99.90;;;11.13;100.00;98126.84;5082213;28;20468;-80
2023/09/28 04:02:57;;;;;;;26.17;20.37;;;11.50;99.90;;;11.11;100.00;98115.44;5088691;28;20457;-85
2023/09/28 04:05:25;;;;;;;28.00;20.40;;;11.50;99.90;;;11.04;100.00;98121.72;5090158;28;20532;-84
2023/09/28 04:07:52;;;;;;;20.57;18.17;;;11.50;99.90;;;11.15;100.00;98139.13;5091274;28;20498;-89
2023/09/28 04:10:21;;;;;;;25.60;19.57;;;11.50;99.90;;;11.18;100.00;98138.69;5088369;28;20480;-88
2023/09/28 04:12:49;;;;;;;24.70;21.20;;;11.50;99.90;;;11.17;100.00;98145.13;5088364;28;21008;-87
2023/09/28 04:15:16;;;;;;;26.40;19.73;;;11.50;99.90;;;11.25;100.00;98154.06;5089193;28;20716;-87
2023/09/28 04:17:44;;;;;;;22.53;19.87;;;11.50;99.90;;;11.25;100.00;98154.06;5076107;28;20547;-85
2023/09/28 04:20:12;;;;;;;29.43;20.80;;;11.50;99.90;;;11.27;100.00;98152.78;5089100;28;20477;-82
2023/09/28 04:22:39;;;;;;;21.73;19.40;;;11.50;99.90;;;10.70;100.00;98074.25;5093920;28;25245;-82
2023/09/28 04:25:07;;;;;;;23.27;20.27;;;11.50;99.90;;;11.14;100.00;98152.84;5095884;28;20443;-80
2023/09/28 04:27:35;;;;;;;21.10;18.23;;;11.40;99.90;;;11.05;100.00;98160.38;5100684;28;20462;-77
2023/09/28 04:30:06;;;;;;;27.10;20.60;;;11.40;99.90;;;11.04;100.00;98145.22;5107447;28;20497;-77
2023/09/28 04:32:33;;;;;;;26.23;21.03;;;11.30;99.90;;;11.14;100.00;98147.44;5107458;28;20450;-77
2023/09/28 04:35:00;;;;;;;22.40;20.10;;;11.40;99.90;;;11.10;100.00;98148.94;5104254;28;20450;-80
2023/09/28 04:37:28;;;;;;;22.40;19.50;;;11.40;99.90;;;11.09;100.00;98147.28;5109261;28;20461;-76
2023/09/28 04:39:55;;;;;;;27.40;20.27;;;11.40;99.90;;;11.06;100.00;98145.81;5106247;28;20455;-80
2023/09/28 04:42:22;;;;;;;22.67;20.27;;;11.40;99.90;;;11.08;100.00;98148.31;5094430;28;20453;-86
2023/09/28 04:44:50;;;;;;;22.17;19.70;;;11.40;99.90;;;11.05;100.00;98139.59;5096538;28;20468;-87
2023/09/28 04:47:18;;;;;;;24.30;19.77;;;11.40;99.90;;;11.02;100.00;98150.84;5097265;28;20444;-80
2023/09/28 04:49:46;;;;;;;24.97;19.17;;;11.40;99.90;;;10.98;100.00;98144.19;5093628;28;20446;-83
2023/09/28 04:52:14;;;;;;;24.17;21.10;;;11.40;99.90;;;11.08;100.00;98164.53;5094682;28;20449;-84
2023/09/28 04:54:41;;;;;;;27.70;20.87;;;11.40;99.90;;;11.09;100.00;98147.28;5096946;28;20455;-85
2023/09/28 04:57:09;;;;;;;27.80;20.57;;;11.40;99.90;;;11.12;100.00;98150.38;5096096;28;20455;-79
2023/09/28 04:59:38;;;;;;;24.00;21.50;;;11.40;99.90;;;11.11;100.00;98148.72;5092627;28;20482;-78
2023/09/28 05:02:06;;;;;;;23.60;21.07;;;11.50;99.90;;;11.14;100.00;98147.44;5090545;28;20478;-76
2023/09/28 05:04:35;;;;;;;25.80;20.10;;;11.50;99.90;;;11.15;100.00;98159.94;5080130;28;20529;-80
2023/09/28 05:07:04;;;;;;;22.57;19.57;;;11.50;99.90;;;10.70;100.00;98080.50;5102041;28;20453;-79
2023/09/28 05:09:31;;;;;;;24.60;19.50;;;11.50;99.90;;;10.71;100.00;98067.81;5078071;28;20984;-83
2023/09/28 05:12:00;;;;;;;24.80;19.67;;;11.50;99.90;;;11.32;100.00;98165.66;5087329;28;20450;-82
2023/09/28 05:14:27;;;;;;;21.23;18.93;;;11.50;99.90;;;11.33;100.00;98168.16;5080462;28;20445;-82
2023/09/28 05:16:55;;;;;;;22.93;18.40;;;11.50;99.90;;;11.43;100.00;98175.81;5085919;28;20456;-79
2023/09/28 05:19:24;;;;;;;22.00;18.57;;;11.60;99.90;;;11.39;100.00;98165.63;5088755;28;20459;-77
2023/09/28 05:21:53;;;;;;;22.50;19.37;;;11.60;99.90;;;11.43;100.00;98164.13;5091522;28;20503;-74
2023/09/28 05:24:20;;;;;;;22.90;20.50;;;11.70;99.90;;;11.45;100.00;98165.59;5088876;28;20457;-74
2023/09/28 05:26:49;;;;;;;21.60;19.50;;;11.70;99.90;;;11.44;100.00;98168.50;5089202;28;20448;-74
2023/09/28 05:29:16;;;;;;;25.97;18.13;;;11.80;99.90;;;11.56;100.00;98174.06;5087645;28;20540;-69
2023/09/28 05:31:44;;;;;;;21.90;19.70;;;11.80;99.90;;;11.57;100.00;98181.94;5084766;28;20534;-76
2023/09/28 05:34:11;;;;;;;24.47;21.57;;;11.90;99.90;;;11.68;100.00;98180.44;5084438;28;20464;-73
2023/09/28 05:36:38;;;;;;;23.37;20.87;;;11.90;99.90;;;11.70;100.00;98182.91;5082757;28;20496;-73
2023/09/28 05:39:08;;;;;;;22.53;20.03;;;12.00;99.90;;;11.74;100.00;98186.84;5084617;28;20469;-75
2023/09/28 05:41:36;;;;;;;28.60;20.00;;;12.00;99.90;;;11.85;100.00;98185.31;5085905;28;20543;-75
2023/09/28 05:44:03;;;;;;;23.30;19.50;;;12.10;99.90;;;12.00;100.00;98195.81;5084335;28;20448;-74
2023/09/28 05:46:31;;;;;;;22.20;19.87;;;12.20;99.90;;;12.24;100.00;98201.50;5087884;28;21022;-73
2023/09/28 05:48:58;;;;;;;21.87;19.13;;;12.40;99.90;;;12.19;100.00;98197.56;5079996;28;20562;-73
2023/09/28 05:51:26;;;;;;;24.90;19.47;;;12.40;99.90;;;12.19;100.00;98200.25;5086032;28;20504;-74
2023/09/28 05:53:53;;;;;;;25.70;20.17;;;12.40;99.90;;;12.27;100.00;98201.06;5081315;28;20448;-70
2023/09/28 05:56:22;;;;;;;24.13;19.50;;;12.50;99.90;;;12.38;100.00;98211.16;5082493;28;20558;-73
2023/09/28 05:58:49;;;;;;;20.53;18.43;;;12.60;99.90;;;12.41;100.00;98201.75;5086073;28;20574;-75
2023/09/28 06:01:18;;;;;;;19.70;17.80;;;12.60;99.90;;;12.50;100.00;98207.69;5086145;28;21290;-74
2023/09/28 06:03:46;;;;;;;21.57;18.70;;;12.70;99.90;;;12.49;100.00;98206.06;5084032;28;20531;-79
2023/09/28 06:06:17;;;;;;;22.53;19.73;;;12.70;99.90;;;12.53;100.00;98208.09;5085552;28;20453;-74
2023/09/28 06:08:46;;;;;;;23.03;20.07;;;12.80;99.90;;;12.45;100.00;98211.09;5072180;28;20961;-80
2023/09/28 06:11:14;;;;;;;22.10;17.77;;;12.80;99.90;;;12.39;100.00;98209.28;5085519;28;20454;-79
2023/09/28 06:13:44;;;;;;;21.17;18.13;;;12.80;99.90;;;12.59;100.00;98217.22;5084743;28;20481;-81
2023/09/28 06:16:13;;;;;;;20.60;18.40;;;12.90;99.90;;;12.59;100.00;98212.63;5081777;28;20456;-80
2023/09/28 06:18:42;;;;;;;20.00;17.60;;;13.00;99.90;;;12.70;100.00;98213.78;5083931;28;20457;-82
2023/09/28 06:21:09;;;;;;;25.03;17.87;;;13.00;99.90;;;12.94;100.00;98219.34;5096117;28;20486;-81
2023/09/28 06:23:36;;;;;;;19.20;17.20;;;13.20;99.90;;;13.21;100.00;98235.31;5079314;28;20495;-78
2023/09/28 06:26:04;;;;;;;20.40;17.77;;;13.40;99.90;;;13.41;98.77;98228.78;5082612;28;20463;-80
2023/09/28 06:28:32;;;;;;;22.13;17.63;;;13.60;98.60;;;12.96;97.81;98168.41;5081695;28;20454;-80
2023/09/28 06:31:01;;;;;;;19.80;17.80;;;13.60;97.10;;;13.46;97.12;98216.22;5086942;28;20450;-81
2023/09/28 06:33:28;;;;;;;20.60;17.07;;;13.80;96.50;;;13.64;96.84;98238.97;5085798;28;20635;-77
2023/09/28 06:35:55;;;;;;;18.20;16.30;;;13.80;96.30;;;13.62;95.59;98240.28;5087563;28;20459;-78
2023/09/28 06:38:22;;;;;;;20.10;17.07;;;13.90;95.50;;;13.64;95.21;98232.72;5086939;28;20460;-79
2023/09/28 06:40:50;;;;;;;26.00;18.23;;;14.00;94.90;;;13.67;95.41;98238.53;5091075;28;20453;-78
2023/09/28 06:43:17;;;;;;;22.57;17.10;;;14.00;95.00;;;13.72;94.76;98226.94;5089746;28;20455;-80
2023/09/28 06:45:45;;;;;;;18.47;16.60;;;14.10;94.80;;;13.90;94.86;98222.53;5102674;28;20443;-76
2023/09/28 06:48:14;;;;;;;19.10;16.73;;;14.20;95.10;;;14.42;91.60;98241.75;5109269;28;20451;-85
2023/09/28 06:50:41;;;;;;;19.47;17.37;;;14.60;94.20;;;14.65;90.44;98247.44;5096350;28;20934;-74
2023/09/28 06:53:09;;;;;;;22.57;16.70;;;14.80;93.40;;;14.64;91.11;98240.34;5083569;28;20468;-75
2023/09/28 06:55:37;;;;;;;19.13;17.03;;;14.90;93.10;;;14.91;89.12;98250.78;5089113;28;20446;-77
2023/09/28 06:58:06;;;;;;;18.10;16.27;;;15.10;92.80;;;14.98;88.82;98251.47;5083342;28;20475;-76
2023/09/28 07:00:33;;;;;;;21.27;17.77;;;15.10;92.60;;;15.25;88.18;98256.41;5086641;28;20443;-77
2023/09/28 07:03:01;;;;;;;21.20;18.57;;;15.30;92.40;;;14.95;87.70;98258.22;5082904;28;20536;-75
2023/09/28 07:05:29;;;;;;;21.07;17.00;;;15.40;91.70;;;14.97;88.97;98247.94;5079893;28;20455;-75
2023/09/28 07:07:56;;;;;;;18.43;16.40;;;15.30;92.20;;;14.90;89.62;98243.69;5085705;28;20461;-77
2023/09/28 07:10:24;;;;;;;18.87;17.00;;;15.20;92.20;;;15.08;89.46;98246.25;5085455;28;20955;-78
2023/09/28 07:12:51;;;;;;;20.87;17.53;;;15.30;92.50;;;15.14;87.58;98260.81;5086089;28;21026;-78
2023/09/28 07:15:18;;;;;;;19.03;17.10;;;15.40;91.90;;;14.87;89.18;98261.31;5083579;28;20462;-75
2023/09/28 07:17:46;;;;;;;19.17;16.67;;;15.30;92.10;;;14.76;90.08;98262.97;5082542;28;20942;-76
2023/09/28 07:20:15;;;;;;;19.50;17.20;;;15.20;92.10;;;14.75;90.10;98246.88;5081682;28;20474;-78
2023/09/28 07:22:43;;;;;;;19.43;17.43;;;15.20;92.30;;;14.91;89.67;98257.03;5084591;28;20471;-78
2023/09/28 07:25:11;;;;;;;19.20;17.30;;;15.30;92.30;;;14.67;90.79;98239.88;5082105;28;20454;-76
2023/09/28 07:27:38;;;;;;;18.83;16.83;;;15.20;92.30;;;14.72;91.51;98248.19;5082252;28;20468;-77
2023/09/28 07:30:07;;;;;;;18.77;16.77;;;15.20;92.60;;;15.18;89.00;98244.84;5081589;28;20505;-76
2023/09/28 07:32:34;;;;;;;18.23;16.23;;;15.30;92.60;;;15.28;87.70;98256.75;5083103;28;20447;-78
2023/09/28 07:35:02;;;;;;;18.63;16.03;;;15.60;92.10;;;15.60;86.84;98279.16;5077332;28;20476;-75
2023/09/28 07:37:29;;;;;;;21.57;18.20;;;15.70;92.00;;;15.66;86.20;98281.75;5079677;28;20454;-75
2023/09/28 07:39:58;;;;;;;19.53;17.53;;;15.80;91.70;;;15.82;85.57;98303.81;5083658;28;20462;-77
2023/09/28 07:42:26;;;;;;;19.50;17.00;;;16.00;91.50;;;15.89;84.72;98293.63;5083811;28;20463;-78
2023/09/28 07:44:53;;;;;;;20.33;18.23;;;16.10;91.30;;;15.67;86.41;98285.28;5088887;28;20459;-77
2023/09/28 07:47:20;;;;;;;19.90;17.57;;;16.10;91.30;;;15.88;85.66;98289.22;5084590;28;20508;-79
2023/09/28 07:49:48;;;;;;;18.00;16.10;;;16.00;91.50;;;16.10;85.17;98283.94;5083364;28;21355;-79
2023/09/28 07:52:15;;;;;;;19.87;17.73;;;16.10;91.60;;;16.26;83.72;98282.31;5080998;28;20439;-75
2023/09/28 07:54:43;;;;;;;22.23;18.43;;;16.30;91.30;;;16.35;83.08;98280.00;5079625;28;20468;-76
2023/09/28 07:57:12;;;;;;;21.03;18.23;;;16.50;91.10;;;16.35;83.38;98273.72;5086250;28;20462;-76
2023/09/28 07:59:40;;;;;;;21.10;19.10;;;16.50;91.10;;;16.26;84.08;98276.88;5080577;28;20535;-76
2023/09/28 08:02:09;;;;;;;21.50;19.37;;;16.50;91.00;;;16.36;84.09;98275.38;5086212;28;20562;-76
2023/09/28 08:04:37;;;;;;;22.10;18.20;;;16.60;91.10;;;16.48;84.05;98275.31;5082910;28;20454;-75
2023/09/28 08:07:04;;;;;;;20.20;18.13;;;16.60;91.10;;;16.69;82.70;98268.28;5081335;28;20451;-76
2023/09/28 08:09:32;;;;;;;20.37;18.17;;;16.70;91.00;;;16.92;81.89;98269.16;5083316;28;20712;-76
2023/09/28 08:11:59;;;;;;;23.10;18.83;;;16.90;90.90;;;17.01;81.40;98266.84;5082055;28;20449;-77
2023/09/28 08:14:29;;;;;;;20.90;18.70;;;17.00;90.80;;;17.13;80.80;98267.56;5079725;28;20448;-76
2023/09/28 08:16:56;;;;;;;20.50;17.37;;;17.20;90.70;;;17.43;79.74;98277.22;5077211;28;20466;-77
2023/09/28 08:19:24;;;;;;;20.87;18.67;;;17.30;90.60;;;17.45;79.12;98269.59;5085033;28;20558;-76
2023/09/28 08:21:51;;;;;;;20.80;18.60;;;17.50;90.30;;;17.56;78.66;98271.38;5082964;28;20505;-75
2023/09/28 08:24:18;;;;;;;19.40;17.60;;;17.60;90.20;;;17.70;78.51;98263.59;5078687;28;20460;-75
2023/09/28 08:26:45;;;;;;;20.37;18.47;;;17.70;90.20;;;17.72;78.39;98268.00;5080176;28;20869;-76
2023/09/28 08:29:15;;;;;;;20.03;18.03;;;17.80;90.20;;;17.67;78.25;98266.06;5078674;28;20524;-77
2023/09/28 08:31:44;;;;;;;20.23;17.00;;;17.80;90.00;;;17.70;78.49;98260.06;5082522;28;20460;-74
2023/09/28 08:34:12;;;;;;;20.67;18.47;;;17.80;90.00;;;17.78;78.09;98251.41;5080000;28;20468;-78
2023/09/28 08:36:40;;;;;;;19.57;17.53;;;17.90;90.00;;;17.90;77.90;98254.00;5079796;28;20450;-75
2023/09/28 08:39:08;;;;;;;19.70;17.77;;;18.00;90.00;;;17.90;78.06;98253.16;5080240;28;20449;-76
2023/09/28 08:41:44;;;;;;;20.27;18.20;;;18.00;90.00;;;17.81;77.69;98256.34;5075160;28;20800;-75
2023/09/28 08:44:13;;;;;;;18.03;16.13;;;18.10;89.50;;;17.91;77.98;98249.34;5083259;28;20454;-76
2023/09/28 08:46:43;;;;;;;22.33;17.70;;;18.00;89.80;;;18.01;77.95;98240.41;5084718;28;20547;-77
2023/09/28 08:49:14;;;;;;;15.53;14.13;;;18.10;89.80;;;18.31;76.60;98242.66;5078466;28;20488;-76
2023/09/28 08:51:42;;;;;;;15.40;13.90;;;18.20;89.70;;;18.58;75.58;98240.94;5089341;28;20460;-79
2023/09/28 08:54:09;;;;;;;16.50;15.00;;;18.50;89.50;;;18.29;76.99;98233.88;5077941;28;20454;-77
2023/09/28 08:56:39;;;;;;;17.07;15.43;;;18.50;89.40;;;18.20;77.03;98236.28;5082721;28;20467;-77
2023/09/28 08:59:08;;;;;;;15.77;14.20;;;18.50;89.00;;;18.19;76.58;98229.13;5080359;28;20532;-77
2023/09/28 09:01:38;;;;;;;13.33;12.03;;;18.50;88.90;;;18.58;74.89;98243.66;5080061;28;20455;-77
2023/09/28 09:04:08;;;;;;;14.93;13.43;;;18.60;88.60;;;18.86;73.40;98253.41;5082737;28;20455;-79
2023/09/28 09:06:35;;;;;;;14.67;13.27;;;18.80;88.20;;;19.02;73.02;98259.84;5085832;28;20452;-77
2023/09/28 09:09:06;;;;;;;15.30;13.37;;;19.00;88.10;;;19.03;73.53;98271.63;5080356;28;20453;-76
2023/09/28 09:11:37;;;;;;;14.70;13.20;;;19.10;88.10;;;19.01;72.70;98263.69;5082743;28;20570;-78
2023/09/28 09:14:04;;;;;;;14.50;12.97;;;19.10;87.70;;;19.15;73.12;98261.28;5082491;28;20997;-79
2023/09/28 09:16:31;;;;;;;13.67;12.37;;;19.20;87.90;;;19.40;71.11;98257.03;5096555;28;20496;-77
2023/09/28 09:18:59;;;;;;;14.97;13.60;;;19.30;87.10;;;19.42;70.88;98254.84;5099246;28;20458;-76
2023/09/28 09:21:41;;;;;;;14.10;12.70;;;19.50;86.90;;;19.36;69.56;98255.91;5092071;28;20520;-79
2023/09/28 09:24:12;;;;;;;13.87;12.57;;;19.50;85.80;;;19.33;69.29;98224.41;5095263;28;20468;-79
2023/09/28 09:26:42;;;;;;;13.37;12.13;;;19.60;86.00;;;19.72;69.32;98258.78;5081861;28;20481;-80
2023/09/28 09:29:10;;;;;;;13.80;12.60;;;19.60;85.80;;;19.53;69.29;98245.56;5083132;28;20541;-78
2023/09/28 09:31:40;;;;;;;12.87;11.67;;;19.60;85.30;;;19.77;68.05;98244.25;5076870;28;20505;-77
2023/09/28 09:34:11;;;;;;;12.33;11.13;;;19.70;85.10;;;19.93;67.74;98250.63;5081778;28;21039;-80
2023/09/28 09:36:41;;;;;;;12.10;11.00;;;19.80;85.00;;;19.94;66.63;98239.41;5081149;28;20535;-77
2023/09/28 09:39:08;;;;;;;12.13;11.13;;;20.00;84.10;;;19.78;66.15;98241.25;5082666;28;20451;-78
2023/09/28 09:41:45;;;;;;;12.17;11.00;;;19.90;83.20;;;20.04;65.68;98251.50;5082819;28;20471;-75
2023/09/28 09:44:17;;;;;;;13.90;11.30;;;19.90;83.50;;;20.24;64.63;98240.53;5082036;28;20456;-79
2023/09/28 09:46:44;;;;;;;11.13;10.17;;;20.10;83.20;;;20.50;64.15;98251.50;5081428;28;20457;-76
2023/09/28 09:49:11;;;;;;;13.13;11.93;;;20.30;82.80;;;20.38;64.05;98243.53;5080971;28;20448;-79
2023/09/28 09:51:45;;;;;;;11.37;10.27;;;20.30;82.40;;;20.50;63.89;98239.69;5060433;28;20816;-79
2023/09/28 09:54:13;;;;;;;15.33;11.10;;;20.30;82.40;;;20.73;63.25;98252.03;5081517;28;20451;-77
2023/09/28 09:56:44;;;;;;;11.77;10.57;;;20.60;82.20;;;20.72;62.97;98236.66;5082493;28;20541;-79
2023/09/28 09:59:15;;;;;;;10.53;9.53;;;20.60;81.80;;;20.86;62.03;98245.19;5079019;28;21050;-77
2023/09/28 10:01:46;;;;;;;10.37;9.30;;;20.80;81.20;;;20.89;61.98;98230.91;5083611;28;20440;-78
2023/09/28 10:04:16;;;;;;;12.13;10.40;;;20.80;81.00;;;21.05;61.13;98233.59;5087626;28;20450;-78
2023/09/28 10:06:48;;;;;;;11.00;9.97;;;21.00;80.60;;;21.06;61.48;98235.25;5084693;28;20481;-78
2023/09/28 10:09:17;;;;;;;10.47;9.40;;;21.00;80.50;;;21.22;61.07;98245.06;5082219;28;20452;-77